Time;durP1;ratioP1;P1;durP2;ratioP2;P2;SDS_P1;SDS_P2;PMS_P1;PMS_P2;Temp;Humidity;BMP_temperature;BMP_pressure;BME280_temperature;BME280_humidity;BME280_pressure;Samples;Min_cycle;Max_cycle;Signal;HPM_P1;HPM_P2
2023/06/19 00:00:37;;;;;;;9.57;8.15;;;;;;;13.43;100.00;96373.41;10574582;28;20275;-74
2023/06/19 00:05:37;;;;;;;9.93;8.05;;;;;;;13.50;100.00;96376.09;10574475;28;20231;-74
2023/06/19 00:10:38;;;;;;;9.88;7.65;;;;;;;13.60;100.00;96360.84;10574407;28;20381;-73
2023/06/19 00:15:38;;;;;;;13.05;8.38;;;;;;;13.67;100.00;96366.19;10574616;28;20197;-73
2023/06/19 00:20:39;;;;;;;12.02;8.75;;;;;;;13.73;100.00;96360.97;10573461;28;20217;-74
2023/06/19 00:25:40;;;;;;;9.15;7.88;;;;;;;13.71;100.00;96372.72;10574652;28;20474;-74
2023/06/19 00:30:41;;;;;;;13.27;8.80;;;;;;;13.77;100.00;96356.19;10573950;28;20193;-74
2023/06/19 00:35:41;;;;;;;10.52;8.43;;;;;;;13.85;100.00;96360.53;10555372;28;20685;-73
2023/06/19 00:40:42;;;;;;;11.75;8.50;;;;;;;13.99;100.00;96353.59;10558300;28;20692;-73
2023/06/19 00:45:43;;;;;;;10.48;9.00;;;;;;;14.13;100.00;96352.69;10564027;28;20227;-73
2023/06/19 00:50:43;;;;;;;10.02;8.93;;;;;;;14.17;100.00;96351.31;10581067;28;20174;-73
2023/06/19 00:55:45;;;;;;;15.55;9.38;;;;;;;14.26;100.00;96344.13;10563583;28;20193;-73
2023/06/19 01:00:45;;;;;;;10.75;8.30;;;;;;;14.26;100.00;96350.19;10544634;28;20225;-74
2023/06/19 01:05:47;;;;;;;13.35;10.07;;;;;;;14.25;100.00;96360.94;10562428;28;20690;-73
2023/06/19 01:10:56;;;;;;;12.30;9.00;;;;;;;14.32;100.00;96353.06;10562149;28;20189;-73
2023/06/19 01:15:57;;;;;;;9.80;8.07;;;;;;;14.36;100.00;96355.13;10529481;28;20714;-73
2023/06/19 01:21:15;;;;;;;9.50;8.43;;;;;;;14.42;100.00;96348.31;10561586;28;20206;-73
2023/06/19 01:26:16;;;;;;;11.07;9.32;;;;;;;14.65;99.95;96337.56;10580422;28;20190;-73
2023/06/19 01:31:20;;;;;;;12.00;9.15;;;;;;;14.71;98.88;96331.53;10544802;28;20186;-73
2023/06/19 01:36:21;;;;;;;10.02;8.60;;;;;;;14.83;98.06;96331.81;10579976;28;20191;-72
2023/06/19 01:41:23;;;;;;;9.75;8.57;;;;;;;14.73;98.57;96320.78;10544093;28;20198;-73
2023/06/19 01:46:23;;;;;;;12.68;9.32;;;;;;;14.75;98.45;96318.78;10561275;28;20246;-73
2023/06/19 01:51:23;;;;;;;10.88;8.98;;;;;;;14.69;99.13;96316.94;10560514;28;20221;-73
2023/06/19 01:56:24;;;;;;;11.85;8.95;;;;;;;14.62;99.51;96311.59;10579371;28;20186;-73
2023/06/19 02:01:25;;;;;;;11.80;8.73;;;;;;;14.56;100.00;96304.41;10559774;28;20236;-73
2023/06/19 02:06:25;;;;;;;11.18;9.02;;;;;;;14.69;99.55;96301.91;10579074;28;20535;-73
2023/06/19 02:11:27;;;;;;;11.88;9.30;;;;;;;14.74;98.26;96296.88;10560384;28;20200;-73
2023/06/19 02:16:28;;;;;;;9.93;8.82;;;;;;;14.78;97.93;96297.31;10559722;28;20568;-73
2023/06/19 02:21:29;;;;;;;12.32;9.45;;;;;;;14.87;96.46;96288.25;10578384;28;20178;-73
2023/06/19 02:26:30;;;;;;;11.38;9.38;;;;;;;14.97;95.58;96278.13;10542454;28;20190;-73
2023/06/19 02:31:31;;;;;;;9.88;8.88;;;;;;;14.98;95.42;96287.69;10558939;28;20198;-73
2023/06/19 02:36:32;;;;;;;11.82;9.00;;;;;;;15.23;93.29;96275.84;10558564;28;20315;-73
2023/06/19 02:41:32;;;;;;;10.77;8.88;;;;;;;15.26;92.50;96265.69;10535269;28;20195;-73
2023/06/19 02:46:32;;;;;;;10.77;9.10;;;;;;;15.28;92.35;96271.59;10515459;28;20201;-73
2023/06/19 02:51:33;;;;;;;10.35;9.18;;;;;;;15.38;91.72;96265.13;10534472;28;20186;-73
2023/06/19 02:56:33;;;;;;;9.95;8.40;;;;;;;15.54;90.03;96258.69;10535097;28;20182;-73
2023/06/19 03:01:34;;;;;;;9.52;8.52;;;;;;;15.73;88.35;96250.00;10531557;28;20234;-72
2023/06/19 03:06:39;;;;;;;9.75;8.75;;;;;;;15.72;88.21;96250.19;10528212;28;20212;-73
2023/06/19 03:11:40;;;;;;;11.20;8.60;;;;;;;15.86;87.09;96243.94;10525566;28;20694;-73
2023/06/19 03:16:40;;;;;;;10.15;8.70;;;;;;;15.96;86.34;96239.09;10525576;28;20637;-73
2023/06/19 03:21:41;;;;;;;11.90;8.68;;;;;;;16.19;84.85;96232.59;10508583;28;20195;-73
2023/06/19 03:26:42;;;;;;;8.70;7.80;;;;;;;16.46;82.45;96220.19;10508058;28;20557;-73
2023/06/19 03:31:42;;;;;;;9.90;8.57;;;;;;;16.58;81.46;96225.63;10525973;28;20179;-72
2023/06/19 03:36:43;;;;;;;12.15;7.00;;;;;;;17.00;78.23;96209.47;10524953;28;20777;-73
2023/06/19 03:41:44;;;;;;;10.98;7.47;;;;;;;17.43;74.83;96179.75;10517421;28;20201;-73
2023/06/19 03:46:47;;;;;;;10.65;6.72;;;;;;;17.62;73.22;96170.84;10549066;28;20238;-72
2023/06/19 03:51:47;;;;;;;7.65;6.95;;;;;;;17.94;70.76;96149.63;10534920;28;20643;-72
2023/06/19 03:56:47;;;;;;;6.82;6.22;;;;;;;18.12;69.86;96138.28;10507731;28;20214;-73
2023/06/19 04:01:48;;;;;;;7.30;6.38;;;;;;;18.16;69.23;96141.28;10526992;28;20233;-72
2023/06/19 04:06:50;;;;;;;9.65;6.53;;;;;;;18.43;67.24;96131.22;10514440;28;20262;-73
2023/06/19 04:11:50;;;;;;;8.57;6.15;;;;;;;18.50;67.03;96131.97;10532193;28;20190;-72
2023/06/19 04:16:51;;;;;;;9.05;5.88;;;;;;;18.61;66.58;96129.63;10519735;28;20757;-72
2023/06/19 04:21:51;;;;;;;7.32;5.60;;;;;;;18.85;65.12;96120.78;10522415;28;20195;-73
2023/06/19 04:26:52;;;;;;;11.57;6.22;;;;;;;19.02;65.41;96138.72;10523504;28;20230;-72
2023/06/19 04:31:53;;;;;;;6.97;5.97;;;;;;;19.19;64.81;96142.41;10542026;28;20248;-72
2023/06/19 04:36:53;;;;;;;7.97;5.43;;;;;;;19.27;64.79;96153.75;10541308;28;20244;-71
2023/06/19 04:41:53;;;;;;;8.95;6.10;;;;;;;19.36;64.13;96145.22;10523092;28;20566;-72
2023/06/19 04:47:00;;;;;;;7.78;5.97;;;;;;;19.61;63.43;96144.25;10541531;28;20734;-72
2023/06/19 04:52:01;;;;;;;8.23;6.07;;;;;;;19.71;62.68;96152.50;10540946;28;20194;-72
2023/06/19 04:57:01;;;;;;;6.32;5.68;;;;;;;19.81;62.63;96149.28;10541013;28;20237;-72
2023/06/19 05:02:01;;;;;;;8.80;5.43;;;;;;;19.78;62.57;96157.72;10540468;28;20235;-72
2023/06/19 05:07:02;;;;;;;6.32;5.70;;;;;;;19.70;62.03;96150.06;10540572;28;20186;-72
2023/06/19 05:12:03;;;;;;;7.00;6.28;;;;;;;19.66;62.54;96157.66;10540317;28;20239;-72
2023/06/19 05:17:03;;;;;;;9.80;5.70;;;;;;;19.71;61.73;96152.50;10539873;28;20269;-72
2023/06/19 05:22:04;;;;;;;7.78;6.15;;;;;;;19.72;61.64;96148.78;10540229;28;20321;-74
2023/06/19 05:27:05;;;;;;;6.88;6.18;;;;;;;19.60;62.17;96158.56;10539224;28;20185;-72
2023/06/19 05:32:05;;;;;;;6.90;6.30;;;;;;;19.66;62.19;96175.47;10539709;28;20190;-72
2023/06/19 05:37:06;;;;;;;7.22;6.43;;;;;;;19.57;62.53;96172.31;10539151;28;20234;-72
2023/06/19 05:42:06;;;;;;;6.22;5.63;;;;;;;19.61;62.67;96186.78;10568423;28;20288;-72
2023/06/19 05:47:07;;;;;;;7.00;6.22;;;;;;;19.71;62.88;96192.34;10580944;28;20200;-72
2023/06/19 05:52:07;;;;;;;8.77;6.13;;;;;;;19.61;62.91;96197.41;10580705;28;20190;-72
2023/06/19 05:57:08;;;;;;;8.60;6.85;;;;;;;19.67;62.47;96191.19;10580673;28;20628;-72
2023/06/19 06:02:08;;;;;;;8.07;5.95;;;;;;;19.74;62.03;96194.56;10579624;28;20278;-72
2023/06/19 06:07:08;;;;;;;8.32;6.25;;;;;;;19.86;62.18;96205.25;10579051;27;20178;-71
2023/06/19 06:12:09;;;;;;;6.72;5.97;;;;;;;19.77;62.42;96203.97;10578466;28;20196;-72
2023/06/19 06:17:09;;;;;;;6.65;5.85;;;;;;;19.85;62.44;96202.81;10578624;28;20301;-72
2023/06/19 06:22:10;;;;;;;9.10;6.10;;;;;;;19.94;62.11;96214.75;10577670;28;20235;-72
2023/06/19 06:27:11;;;;;;;6.95;6.25;;;;;;;19.87;62.52;96214.03;10578222;28;20688;-72
2023/06/19 06:32:11;;;;;;;7.13;5.90;;;;;;;19.93;62.29;96223.75;10577039;28;20318;-72
2023/06/19 06:37:12;;;;;;;9.68;6.20;;;;;;;19.91;61.64;96221.31;10556609;28;20323;-72
2023/06/19 06:42:12;;;;;;;7.03;6.10;;;;;;;19.93;62.40;96232.53;10583549;27;20189;-73
2023/06/19 06:47:13;;;;;;;8.65;5.72;;;;;;;20.07;61.86;96225.16;10558851;28;20242;-72
2023/06/19 06:52:13;;;;;;;7.07;6.03;;;;;;;20.16;61.97;96235.47;10556885;28;20239;-72
2023/06/19 06:57:14;;;;;;;7.63;6.18;;;;;;;20.32;62.30;96242.75;10576927;28;20574;-72
2023/06/19 07:02:14;;;;;;;8.52;6.05;;;;;;;20.42;60.99;96224.38;10575739;28;20703;-72
2023/06/19 07:07:15;;;;;;;8.55;6.32;;;;;;;20.53;62.30;96264.53;10576644;28;20529;-72
2023/06/19 07:12:15;;;;;;;8.82;6.10;;;;;;;20.72;63.20;96284.72;10566383;28;20194;-72
2023/06/19 07:17:15;;;;;;;6.95;6.07;;;;;;;20.94;61.60;96260.97;10574234;28;20224;-72
2023/06/19 07:22:16;;;;;;;7.05;6.05;;;;;;;21.22;61.11;96262.06;10572812;28;20208;-72
2023/06/19 07:27:16;;;;;;;7.65;6.65;;;;;;;21.46;60.76;96252.16;10574299;28;20182;-72
2023/06/19 07:32:16;;;;;;;10.35;6.30;;;;;;;21.61;60.89;96246.34;10572087;28;20273;-72
2023/06/19 07:37:20;;;;;;;7.00;6.15;;;;;;;21.73;60.20;96244.44;10574196;28;20229;-72
2023/06/19 07:42:20;;;;;;;7.53;6.70;;;;;;;21.94;60.02;96249.31;10573735;28;20272;-72
2023/06/19 07:47:21;;;;;;;8.43;6.13;;;;;;;22.04;60.84;96268.97;10573003;28;20613;-72
2023/06/19 07:52:21;;;;;;;8.40;6.07;;;;;;;21.73;61.64;96287.09;10571190;28;20186;-71
2023/06/19 07:57:23;;;;;;;7.20;6.50;;;;;;;22.31;61.55;96288.91;10570625;28;20685;-72
2023/06/19 08:02:23;;;;;;;6.50;5.75;;;;;;;22.30;60.03;96271.25;10573142;28;20252;-71
2023/06/19 08:07:23;;;;;;;6.47;5.88;;;;;;;22.55;58.69;96246.88;10573427;28;20197;-72
2023/06/19 08:12:24;;;;;;;6.68;5.97;;;;;;;22.49;58.50;96251.31;10573462;28;20212;-72
2023/06/19 08:17:24;;;;;;;8.68;6.30;;;;;;;22.50;59.09;96260.94;10572373;28;20213;-73
2023/06/19 08:22:25;;;;;;;6.47;5.80;;;;;;;22.17;58.47;96246.50;10572176;28;20608;-72
2023/06/19 08:27:25;;;;;;;8.38;5.70;;;;;;;21.85;59.56;96265.72;10572481;28;20190;-73
2023/06/19 08:32:26;;;;;;;6.75;5.97;;;;;;;21.72;60.00;96271.34;10569767;28;20181;-73
2023/06/19 08:37:26;;;;;;;7.10;5.78;;;;;;;21.69;62.13;96306.47;10571636;28;20282;-73
2023/06/19 08:42:27;;;;;;;10.80;5.80;;;;;;;21.83;61.53;96293.66;10572859;28;20677;-72
2023/06/19 08:47:36;;;;;;;7.15;5.70;;;;;;;21.83;64.59;96341.66;10571955;28;20545;-72
2023/06/19 08:52:37;;;;;;;11.02;6.03;;;;;;;22.06;61.48;96292.75;10572786;28;20561;-72
2023/06/19 08:57:39;;;;;;;7.22;5.80;;;;;;;22.60;65.21;96370.56;10552376;28;20867;-71
2023/06/19 09:02:44;;;;;;;9.57;6.38;;;;;;;22.84;63.08;96338.34;10576745;27;20222;-72
2023/06/19 09:07:57;;;;;;;13.75;6.40;;;;;;;23.49;60.35;96303.97;10577283;28;20186;-72
2023/06/19 09:13:01;;;;;;;7.40;6.00;;;;;;;24.17;60.79;96330.44;10518494;28;20534;-72
2023/06/19 09:18:09;;;;;;;7.40;6.03;;;;;;;24.44;59.56;96309.00;10535940;28;20704;-72
2023/06/19 09:23:13;;;;;;;7.38;5.75;;;;;;;24.63;63.10;96370.25;10518796;28;20194;-72
2023/06/19 09:28:21;;;;;;;5.85;5.25;;;;;;;24.56;62.10;96341.78;10536524;28;20191;-72
2023/06/19 09:33:22;;;;;;;7.13;6.20;;;;;;;24.73;62.24;96340.84;10534850;28;20198;-72
2023/06/19 09:38:26;;;;;;;6.43;5.82;;;;;;;24.48;62.38;96334.19;10499965;28;20214;-72
2023/06/19 09:43:34;;;;;;;7.60;6.13;;;;;;;24.68;61.03;96308.69;10566100;28;20290;-73
2023/06/19 09:48:35;;;;;;;6.97;6.03;;;;;;;24.82;60.98;96319.75;10576675;28;20198;-72
2023/06/19 09:53:36;;;;;;;7.50;5.95;;;;;;;25.43;57.41;96276.44;10524265;28;20186;-72
2023/06/19 09:58:37;;;;;;;7.78;5.75;;;;;;;25.03;55.30;96227.69;10576993;28;20217;-73
2023/06/19 10:03:37;;;;;;;9.75;5.72;;;;;;;26.09;49.65;96155.00;10558040;28;20731;-72
2023/06/19 10:08:40;;;;;;;7.38;5.38;;;;;;;26.90;46.03;96108.66;10576803;28;20599;-72
2023/06/19 10:13:41;;;;;;;7.35;5.22;;;;;;;27.65;40.89;96027.75;10574054;28;20233;-72
2023/06/19 10:18:46;;;;;;;5.82;5.18;;;;;;;28.22;42.44;96095.34;10577133;28;20222;-73
2023/06/19 10:23:57;;;;;;;6.88;5.45;;;;;;;27.51;47.85;96177.47;10572481;28;20204;-73
2023/06/19 10:28:57;;;;;;;6.20;5.60;;;;;;;27.87;47.54;96177.22;10575110;28;20201;-73
2023/06/19 10:33:58;;;;;;;8.00;5.77;;;;;;;28.41;45.73;96149.31;10539996;28;20293;-73
2023/06/19 10:38:58;;;;;;;8.02;5.80;;;;;;;28.59;45.69;96153.19;10572894;28;20475;-72
2023/06/19 10:44:02;;;;;;;8.93;5.63;;;;;;;28.74;46.21;96164.88;10571335;28;20284;-72
2023/06/19 10:49:05;;;;;;;8.02;5.75;;;;;;;28.70;42.88;96091.88;10531751;28;20432;-72
2023/06/19 10:54:06;;;;;;;6.85;5.43;;;;;;;29.73;41.78;96093.16;10513152;28;20560;-72
2023/06/19 10:59:17;;;;;;;7.25;6.00;;;;;;;29.97;40.68;96067.94;10532606;28;20301;-72
2023/06/19 11:04:17;;;;;;;7.18;5.15;;;;;;;31.02;38.01;96044.84;10531456;28;20662;-72
2023/06/19 11:09:19;;;;;;;7.10;5.70;;;;;;;31.65;38.02;96072.91;10532124;28;20226;-72
2023/06/19 11:14:19;;;;;;;10.93;5.43;;;;;;;31.08;38.59;96051.75;10530982;28;20445;-72
2023/06/19 11:19:21;;;;;;;8.70;5.73;;;;;;;31.09;37.79;96039.81;10542132;28;20326;-72
2023/06/19 11:24:23;;;;;;;6.05;5.35;;;;;;;30.65;37.73;96035.88;10573543;28;20530;-72
2023/06/19 11:29:32;;;;;;;6.03;5.38;;;;;;;30.51;36.78;96006.94;10573290;28;20221;-72
2023/06/19 11:34:36;;;;;;;7.55;5.47;;;;;;;31.44;36.47;96034.66;10554051;28;20182;-72
2023/06/19 11:39:36;;;;;;;9.38;5.55;;;;;;;31.89;36.09;96050.91;10571287;28;20241;-73
2023/06/19 11:44:55;;;;;;;8.45;5.00;;;;;;;32.14;34.72;96010.72;10572222;27;20273;-72
2023/06/19 11:49:55;;;;;;;9.13;6.20;;;;;;;33.45;32.47;96001.97;10571796;28;20811;-72
2023/06/19 11:54:55;;;;;;;6.03;5.43;;;;;;;32.67;34.36;96004.34;10537632;28;20277;-72
2023/06/19 11:59:56;;;;;;;6.67;5.43;;;;;;;33.13;35.18;96044.78;10571060;28;20452;-73
2023/06/19 12:04:56;;;;;;;6.00;5.40;;;;;;;33.36;33.31;96002.00;10572178;28;20524;-72
2023/06/19 12:09:56;;;;;;;6.87;5.47;;;;;;;34.09;34.12;96050.13;10554122;28;20565;-72
2023/06/19 12:14:57;;;;;;;5.77;4.93;;;;;;;34.32;33.16;96039.03;10571533;28;20449;-73
2023/06/19 12:19:57;;;;;;;6.13;5.50;;;;;;;34.86;31.26;96013.94;10571365;28;20439;-72
2023/06/19 12:24:57;;;;;;;8.27;5.17;;;;;;;34.75;32.56;96019.75;10570665;28;20479;-73
2023/06/19 12:29:58;;;;;;;9.03;6.00;;;;;;;35.17;30.61;95984.38;10571453;28;20494;-73
2023/06/19 12:34:58;;;;;;;7.23;6.13;;;;;;;32.06;34.63;95949.94;10571861;28;20275;-72
2023/06/19 12:39:58;;;;;;;7.80;6.80;;;;;;;29.00;40.45;96011.66;10580130;28;20466;-73
2023/06/19 12:44:59;;;;;;;8.73;6.90;;;;;;;27.54;41.92;96024.34;10579383;28;20190;-73
2023/06/19 12:49:59;;;;;;;8.23;7.35;;;;;;;26.53;46.36;96097.19;10579510;28;20532;-72
2023/06/19 12:55:01;;;;;;;8.30;7.53;;;;;;;26.93;45.76;96108.09;10578667;28;20339;-72
2023/06/19 13:00:01;;;;;;;10.70;7.75;;;;;;;26.63;46.59;96094.47;10578650;28;20796;-73
2023/06/19 13:05:02;;;;;;;8.82;7.95;;;;;;;26.74;48.06;96135.59;10578850;28;20229;-72
2023/06/19 13:10:03;;;;;;;9.63;7.75;;;;;;;26.57;48.19;96132.38;10578355;28;20271;-72
2023/06/19 13:15:04;;;;;;;9.35;8.18;;;;;;;26.58;50.14;96174.28;10577704;28;20724;-71
2023/06/19 13:20:06;;;;;;;9.93;8.13;;;;;;;26.51;48.60;96137.75;10576824;27;20194;-71
2023/06/19 13:25:06;;;;;;;10.02;8.45;;;;;;;26.80;48.34;96129.09;10578026;27;20629;-73
2023/06/19 13:30:07;;;;;;;11.60;8.68;;;;;;;26.28;50.17;96147.22;10590202;27;20224;-73
2023/06/19 13:35:08;;;;;;;15.52;9.05;;;;;;;25.62;51.31;96151.50;10581918;27;20646;-71
2023/06/19 13:40:08;;;;;;;11.00;8.60;;;;;;;26.07;51.01;96167.13;10576717;28;20610;-73
2023/06/19 13:45:09;;;;;;;15.57;8.70;;;;;;;26.33;51.58;96187.47;10577531;28;20194;-73
2023/06/19 13:50:12;;;;;;;10.85;9.35;;;;;;;27.16;48.85;96152.34;10576400;28;20273;-73
2023/06/19 13:55:14;;;;;;;14.02;9.13;;;;;;;26.89;49.62;96158.88;10574809;28;20654;-73
2023/06/19 14:00:14;;;;;;;12.15;8.90;;;;;;;26.90;49.22;96147.06;10575621;28;20669;-73
2023/06/19 14:05:15;;;;;;;13.20;8.50;;;;;;;27.61;48.30;96155.84;10576109;28;20262;-72
2023/06/19 14:10:15;;;;;;;12.23;9.32;;;;;;;27.74;47.57;96143.66;10557883;28;20633;-72
2023/06/19 14:15:16;;;;;;;15.57;8.88;;;;;;;28.09;47.55;96144.50;10560419;28;20308;-73
2023/06/19 14:20:16;;;;;;;12.70;9.70;;;;;;;28.04;46.89;96126.50;10575568;28;20572;-73
2023/06/19 14:25:16;;;;;;;11.90;8.90;;;;;;;28.40;46.40;96122.66;10576269;28;20190;-73
2023/06/19 14:30:17;;;;;;;9.57;8.67;;;;;;;28.83;45.82;96131.59;10575043;28;20536;-72
2023/06/19 14:35:17;;;;;;;16.87;9.63;;;;;;;27.26;48.76;96148.78;10576546;28;20534;-73
2023/06/19 14:40:18;;;;;;;11.60;8.90;;;;;;;28.38;47.74;96152.56;10576964;28;20454;-72
2023/06/19 14:45:18;;;;;;;12.13;9.47;;;;;;;27.74;47.69;96117.53;10577228;28;20189;-73
2023/06/19 14:50:18;;;;;;;25.70;11.07;;;;;;;28.61;46.10;96112.47;10535149;28;20479;-73
2023/06/19 14:56:19;;;;;;;14.63;9.80;;;;;;;28.71;45.57;96120.44;10532773;28;20433;-71
2023/06/19 15:01:50;;;;;;;11.23;8.80;;;;;;;28.59;44.47;96093.09;10407931;28;20274;-71
2023/06/19 15:06:50;;;;;;;9.52;8.55;;;;;;;28.71;45.80;96133.91;10566928;28;20205;-71
2023/06/19 15:18:17;;;;;;;34.47;13.70;;;;;;;28.22;47.20;96148.41;10573033;28;20646;-72
2023/06/19 15:23:18;;;;;;;9.70;8.70;;;;;;;27.71;47.32;96123.50;10558607;28;20202;-72
2023/06/19 15:28:18;;;;;;;14.95;10.23;;;;;;;28.47;47.60;96158.94;10530739;28;20480;-72
2023/06/19 15:33:37;;;;;;;9.43;8.53;;;;;;;28.29;47.09;96143.50;10536686;28;20198;-72
2023/06/19 15:38:38;;;;;;;11.98;8.82;;;;;;;27.61;50.85;96192.72;10544130;28;20448;-72
2023/06/19 15:43:38;;;;;;;10.73;8.85;;;;;;;28.49;49.07;96198.28;10549922;28;20731;-72
2023/06/19 15:48:39;;;;;;;9.50;8.43;;;;;;;29.91;46.09;96174.44;10555960;28;20214;-72
2023/06/19 15:53:39;;;;;;;11.55;8.88;;;;;;;30.36;42.83;96104.53;10536910;28;20206;-73
2023/06/19 15:58:39;;;;;;;9.60;8.37;;;;;;;30.50;42.86;96099.94;10531062;28;20273;-72
2023/06/19 16:03:40;;;;;;;13.43;8.60;;;;;;;30.98;41.16;96076.31;10553278;28;20466;-71
2023/06/19 16:08:40;;;;;;;7.87;7.17;;;;;;;31.24;39.59;96050.28;10575253;28;20695;-72
2023/06/19 16:13:41;;;;;;;8.80;7.47;;;;;;;31.13;40.21;96051.63;10589334;28;20538;-72
2023/06/19 16:18:41;;;;;;;8.38;7.28;;;;;;;31.18;39.64;96042.56;10589828;28;20197;-73
2023/06/19 16:23:41;;;;;;;7.55;6.85;;;;;;;30.87;42.91;96102.75;10589644;28;20190;-72
2023/06/19 16:28:42;;;;;;;7.77;7.00;;;;;;;30.15;43.28;96083.25;10590137;28;20228;-72
2023/06/19 16:33:42;;;;;;;13.43;7.17;;;;;;;30.57;41.81;96078.72;10571197;28;20463;-72
2023/06/19 16:38:42;;;;;;;7.90;6.90;;;;;;;30.75;41.36;96074.31;10589579;28;20455;-72
2023/06/19 16:43:43;;;;;;;7.07;6.37;;;;;;;31.35;40.14;96061.69;10571424;28;20443;-72
2023/06/19 16:48:44;;;;;;;15.13;6.93;;;;;;;30.53;40.37;96034.47;10589179;27;20561;-73
2023/06/19 16:53:44;;;;;;;8.57;6.40;;;;;;;29.88;41.52;96030.81;10589369;28;20431;-73
2023/06/19 16:58:44;;;;;;;7.23;6.00;;;;;;;29.87;40.78;96028.41;10588736;28;20565;-72
2023/06/19 17:03:45;;;;;;;9.73;6.13;;;;;;;29.68;42.40;96060.84;10588887;27;20539;-73
2023/06/19 17:08:45;;;;;;;7.30;5.80;;;;;;;29.46;42.15;96051.47;10588668;28;20574;-72
2023/06/19 17:13:46;;;;;;;7.53;6.38;;;;;;;29.42;42.38;96055.03;10588612;27;20454;-72
2023/06/19 17:18:46;;;;;;;7.93;6.10;;;;;;;29.07;43.02;96057.16;10588387;27;20280;-72
2023/06/19 17:23:46;;;;;;;6.40;5.80;;;;;;;28.53;44.03;96067.25;10582345;28;20186;-72
2023/06/19 17:28:47;;;;;;;8.00;6.20;;;;;;;28.04;47.68;96142.66;10582005;28;20558;-74
2023/06/19 17:33:47;;;;;;;7.27;6.30;;;;;;;27.66;48.70;96152.34;10580987;28;20439;-72
2023/06/19 17:38:47;;;;;;;13.73;5.93;;;;;;;27.04;50.32;96161.53;10581149;28;20535;-71
2023/06/19 17:43:49;;;;;;;7.20;6.23;;;;;;;26.43;53.05;96196.59;10580918;28;20477;-72
2023/06/19 17:48:58;;;;;;;7.00;6.32;;;;;;;26.18;56.33;96249.25;10562444;28;20479;-72
2023/06/19 17:53:58;;;;;;;7.10;6.40;;;;;;;25.41;58.92;96278.56;10579322;28;20225;-72
2023/06/19 17:58:58;;;;;;;7.95;7.15;;;;;;;23.44;64.58;96307.41;10578127;28;20334;-72
2023/06/19 18:03:59;;;;;;;9.13;7.05;;;;;;;23.77;65.16;96313.69;10578774;28;20233;-72
2023/06/19 18:08:59;;;;;;;7.47;6.70;;;;;;;23.88;65.59;96303.94;10578577;28;20264;-72
2023/06/19 18:14:00;;;;;;;8.13;6.95;;;;;;;23.25;67.61;96306.09;10578217;27;20225;-72
2023/06/19 18:19:00;;;;;;;8.48;7.68;;;;;;;22.56;70.54;96312.56;10578458;28;20182;-72
2023/06/19 18:24:01;;;;;;;7.88;7.03;;;;;;;22.49;70.57;96302.03;10559488;28;20185;-71
2023/06/19 18:29:01;;;;;;;9.82;7.65;;;;;;;22.21;69.95;96300.22;10577801;28;20220;-72
2023/06/19 18:34:02;;;;;;;11.45;7.82;;;;;;;22.03;71.33;96314.56;10575151;28;20205;-72
2023/06/19 18:39:02;;;;;;;8.95;7.82;;;;;;;22.25;70.36;96309.34;10576147;28;20209;-72
2023/06/19 18:44:03;;;;;;;9.00;7.53;;;;;;;21.91;73.01;96322.59;10575346;28;20202;-72
2023/06/19 18:49:03;;;;;;;8.27;7.47;;;;;;;20.99;76.69;96332.97;10575868;28;20209;-72
2023/06/19 18:54:03;;;;;;;9.25;7.72;;;;;;;20.52;79.04;96335.59;10575797;28;20185;-73
2023/06/19 18:59:04;;;;;;;8.60;7.70;;;;;;;20.26;80.49;96332.28;10574946;28;20208;-73
2023/06/19 19:04:04;;;;;;;10.57;8.13;;;;;;;20.44;79.88;96322.59;10574895;28;20247;-72
2023/06/19 19:09:05;;;;;;;12.88;8.70;;;;;;;20.30;82.83;96346.75;10575121;28;20312;-72
2023/06/19 19:14:05;;;;;;;10.57;8.73;;;;;;;20.13;83.91;96337.78;10574465;28;20193;-73
2023/06/19 19:19:05;;;;;;;10.32;8.88;;;;;;;19.82;85.57;96338.84;10574987;28;20832;-73
2023/06/19 19:24:06;;;;;;;9.70;8.70;;;;;;;19.86;86.51;96337.34;10574201;28;20675;-73
2023/06/19 19:29:06;;;;;;;9.98;8.75;;;;;;;19.81;87.27;96345.19;10574150;28;20677;-72
2023/06/19 19:34:06;;;;;;;12.38;9.57;;;;;;;19.76;87.46;96341.31;10573991;28;20182;-72
2023/06/19 19:39:07;;;;;;;13.82;9.73;;;;;;;19.72;87.18;96350.75;10572947;28;20253;-72
2023/06/19 19:44:07;;;;;;;13.40;10.27;;;;;;;19.65;87.45;96358.03;10573469;28;20280;-72
2023/06/19 19:49:08;;;;;;;11.48;10.27;;;;;;;19.70;87.85;96360.00;10573582;28;20245;-72
2023/06/19 19:54:08;;;;;;;12.60;9.57;;;;;;;19.64;87.52;96364.34;10572774;28;20646;-72
2023/06/19 19:59:08;;;;;;;11.95;10.48;;;;;;;19.51;88.87;96359.19;10573985;28;20193;-72
2023/06/19 20:04:09;;;;;;;10.93;9.68;;;;;;;19.36;88.98;96359.59;10572681;28;20599;-72
2023/06/19 20:09:09;;;;;;;12.73;10.60;;;;;;;19.36;89.35;96372.88;10573360;28;20214;-71
2023/06/19 20:14:10;;;;;;;12.73;9.80;;;;;;;19.34;89.80;96372.25;10554802;28;20277;-72
2023/06/19 20:19:10;;;;;;;12.77;10.65;;;;;;;19.24;90.80;96372.78;10573135;28;20595;-72
2023/06/19 20:24:10;;;;;;;12.02;10.40;;;;;;;19.05;92.57;96375.41;10572688;28;20288;-72
2023/06/19 20:29:11;;;;;;;14.23;11.05;;;;;;;18.87;94.81;96375.38;10573062;28;20225;-73
2023/06/19 20:34:12;;;;;;;13.60;11.60;;;;;;;18.73;95.94;96379.94;10572724;28;20186;-71
2023/06/19 20:39:12;;;;;;;14.45;11.80;;;;;;;18.68;96.35;96372.63;10572644;28;20344;-72
2023/06/19 20:44:13;;;;;;;12.98;11.30;;;;;;;18.68;96.66;96377.09;10572530;28;20196;-72
2023/06/19 20:49:14;;;;;;;13.32;11.60;;;;;;;18.56;98.69;96387.63;10573318;28;20291;-71
2023/06/19 20:54:14;;;;;;;14.98;12.25;;;;;;;18.49;99.38;96377.03;10572731;28;20281;-73
2023/06/19 20:59:14;;;;;;;14.73;11.75;;;;;;;18.52;99.42;96386.41;10580403;27;20264;-72
2023/06/19 21:04:15;;;;;;;17.15;12.55;;;;;;;18.46;99.86;96380.13;10582240;28;20233;-72
2023/06/19 21:09:15;;;;;;;13.40;12.02;;;;;;;18.59;99.44;96386.34;10581803;28;20271;-72
2023/06/19 21:14:15;;;;;;;18.35;12.18;;;;;;;18.57;99.41;96385.78;10582483;28;20711;-72
2023/06/19 21:19:16;;;;;;;13.70;12.30;;;;;;;18.54;99.93;96377.22;10582292;28;20553;-72
2023/06/19 21:24:16;;;;;;;16.50;12.38;;;;;;;18.46;100.00;96390.72;10581515;28;20605;-72
2023/06/19 21:29:16;;;;;;;15.43;13.30;;;;;;;18.38;100.00;96392.81;10581848;28;20664;-72
2023/06/19 21:34:17;;;;;;;14.35;11.85;;;;;;;18.29;100.00;96400.22;10581614;28;20656;-72
2023/06/19 21:39:17;;;;;;;16.40;13.23;;;;;;;18.15;100.00;96400.31;10581050;28;20206;-72
2023/06/19 21:44:18;;;;;;;15.00;13.43;;;;;;;18.05;100.00;96399.94;10580927;28;20220;-72
2023/06/19 21:49:18;;;;;;;15.32;13.07;;;;;;;18.10;100.00;96397.47;10580848;28;20232;-72
2023/06/19 21:54:18;;;;;;;15.10;13.48;;;;;;;18.11;100.00;96398.28;10580963;28;20181;-72
2023/06/19 21:59:19;;;;;;;15.07;12.75;;;;;;;18.09;100.00;96403.00;10581193;28;20197;-72
2023/06/19 22:04:19;;;;;;;15.85;12.80;;;;;;;17.94;100.00;96393.47;10579758;28;20250;-72
2023/06/19 22:09:19;;;;;;;15.55;13.85;;;;;;;17.92;100.00;96405.31;10580193;28;20308;-72
2023/06/19 22:14:21;;;;;;;14.48;12.95;;;;;;;17.90;100.00;96397.59;10579565;28;20248;-72
2023/06/19 22:19:23;;;;;;;15.52;13.13;;;;;;;17.89;100.00;96405.75;10579703;28;20189;-72
2023/06/19 22:24:23;;;;;;;14.93;12.70;;;;;;;17.91;100.00;96403.69;10579185;28;20220;-72
2023/06/19 22:29:24;;;;;;;15.85;13.88;;;;;;;17.94;100.00;96387.38;10579712;28;20224;-72
2023/06/19 22:34:24;;;;;;;14.90;13.40;;;;;;;17.87;100.00;96395.31;10578707;28;20194;-72
2023/06/19 22:39:24;;;;;;;16.40;12.30;;;;;;;17.85;100.00;96392.03;10578346;28;20208;-72
2023/06/19 22:44:25;;;;;;;15.55;13.02;;;;;;;17.80;100.00;96392.69;10578204;28;20304;-72
2023/06/19 22:49:29;;;;;;;15.15;13.27;;;;;;;17.77;100.00;96395.75;10577614;28;20229;-72
2023/06/19 22:54:29;;;;;;;16.15;12.65;;;;;;;17.82;100.00;96395.94;10577909;28;20190;-72
2023/06/19 22:59:29;;;;;;;13.07;11.77;;;;;;;17.83;100.00;96400.22;10577978;28;20577;-71
2023/06/19 23:04:30;;;;;;;17.70;11.55;;;;;;;17.82;100.00;96395.94;10576894;28;20636;-74
2023/06/19 23:09:30;;;;;;;14.00;12.27;;;;;;;17.74;100.00;96398.81;10577502;28;20631;-73
2023/06/19 23:14:31;;;;;;;14.25;12.32;;;;;;;17.68;100.00;96402.31;10577591;28;20565;-73